Time;durP1;ratioP1;P1;durP2;ratioP2;P2;SDS_P1;SDS_P2;PMS_P1;PMS_P2;Temp;Humidity;BMP_temperature;BMP_pressure;BME280_temperature;BME280_humidity;BME280_pressure;Samples;Min_cycle;Max_cycle;Signal;HPM_P1;HPM_P2
2022/10/22 00:00:14;;;;;;;24.05;11.05;;;;;;;9.18;72.98;99480.28;1625637;88;21059;-79
2022/10/22 00:02:44;;;;;;;27.45;11.28;;;;;;;9.22;73.17;99480.66;1630459;88;21059;-80
2022/10/22 00:05:11;;;;;;;30.50;13.13;;;;;;;9.26;73.09;99483.63;1629074;88;21055;-80
2022/10/22 00:07:39;;;;;;;33.15;13.75;;;;;;;9.23;72.87;99482.81;1632034;88;21047;-80
2022/10/22 00:10:08;;;;;;;31.07;14.15;;;;;;;9.20;73.31;99478.53;1630136;87;21047;-79
2022/10/22 00:12:38;;;;;;;33.58;13.43;;;;;;;9.23;73.32;99470.72;1636357;87;20995;-78
2022/10/22 00:15:07;;;;;;;35.65;14.15;;;;;;;9.26;72.96;99473.70;1615769;88;21051;-79
2022/10/22 00:17:34;;;;;;;38.05;13.85;;;;;;;9.21;72.39;99468.59;1630201;88;21055;-79
2022/10/22 00:20:04;;;;;;;29.57;14.55;;;;;;;9.20;73.05;99475.09;1634496;88;21020;-79
2022/10/22 00:22:32;;;;;;;27.67;13.28;;;;;;;9.24;72.99;99464.64;1632086;88;21552;-78
2022/10/22 00:25:00;;;;;;;30.02;13.70;;;;;;;9.17;72.65;99461.70;1637137;88;21575;-79
2022/10/22 00:27:27;;;;;;;31.37;12.95;;;;;;;9.14;73.18;99461.30;1628178;87;21043;-79
2022/10/22 00:29:55;;;;;;;27.27;12.53;;;;;;;9.15;73.65;99451.78;1637501;88;21087;-79
2022/10/22 00:32:23;;;;;;;31.40;12.45;;;;;;;9.19;73.49;99442.22;1627984;88;21515;-78
2022/10/22 00:34:50;;;;;;;27.90;12.63;;;;;;;9.20;73.44;99447.41;1635104;88;21035;-80
2022/10/22 00:37:18;;;;;;;32.28;12.28;;;;;;;9.21;73.47;99441.34;1621928;88;21067;-79
2022/10/22 00:39:46;;;;;;;28.27;14.03;;;;;;;9.25;73.40;99444.73;1616836;88;21084;-79
2022/10/22 00:42:21;;;;;;;30.15;13.72;;;;;;;9.27;73.56;99449.05;1632325;88;21007;-79
2022/10/22 00:45:17;;;;;;;31.07;12.90;;;;;;;9.30;73.45;99448.12;1632491;88;21019;-79
2022/10/22 00:48:09;;;;;;;31.73;12.80;;;;;;;9.31;73.26;99446.82;1627949;88;21127;-79
2022/10/22 00:50:48;;;;;;;33.00;12.95;;;;;;;9.32;73.41;99443.33;1618075;88;21079;-80
2022/10/22 00:53:24;;;;;;;39.03;14.25;;;;;;;9.32;72.97;99440.73;1632130;87;21054;-80
2022/10/22 00:55:53;;;;;;;35.73;13.83;;;;;;;9.26;72.28;99439.98;1637556;88;21047;-79
2022/10/22 00:58:25;;;;;;;35.70;14.23;;;;;;;9.19;73.28;99434.03;1631788;87;21055;-78
2022/10/22 01:00:54;;;;;;;37.90;12.63;;;;;;;9.13;73.01;99431.48;1632388;88;21488;-79
2022/10/22 01:03:22;;;;;;;29.80;11.95;;;;;;;9.04;73.43;99432.48;1631621;87;21567;-79
2022/10/22 01:05:56;;;;;;;36.73;13.15;;;;;;;8.97;72.00;99437.32;1631691;88;21602;-79
2022/10/22 01:08:48;;;;;;;27.85;12.55;;;;;;;8.84;72.65;99428.01;1635616;87;21471;-79
2022/10/22 01:11:32;;;;;;;26.00;12.25;;;;;;;8.74;72.57;99430.70;1632348;87;21051;-80
2022/10/22 01:14:08;;;;;;;33.95;12.28;;;;;;;8.64;73.33;99422.63;1628401;87;21539;-79
2022/10/22 01:16:50;;;;;;;29.07;11.78;;;;;;;8.58;73.32;99424.44;1601281;88;21047;-78
2022/10/22 01:19:43;;;;;;;25.40;11.83;;;;;;;8.51;73.16;99430.97;1620335;88;21035;-79
2022/10/22 01:22:43;;;;;;;24.70;11.68;;;;;;;8.50;74.51;99421.48;1623943;88;22225;-79
2022/10/22 01:25:37;;;;;;;33.10;12.53;;;;;;;8.51;73.97;99419.75;1595714;89;21075;-79
2022/10/22 01:28:19;;;;;;;25.92;11.18;;;;;;;8.41;73.65;99415.11;1630805;87;21043;-81
2022/10/22 01:30:50;;;;;;;25.35;10.90;;;;;;;8.40;75.29;99410.78;1629423;88;21028;-78
2022/10/22 01:33:21;;;;;;;24.82;11.85;;;;;;;8.37;74.28;99409.50;1637742;87;21435;-78
2022/10/22 01:35:49;;;;;;;32.73;11.88;;;;;;;8.38;75.37;99415.13;1626965;88;21099;-78
2022/10/22 01:38:21;;;;;;;25.68;12.25;;;;;;;8.39;75.48;99409.05;1637357;87;20992;-79
2022/10/22 01:40:50;;;;;;;28.15;11.73;;;;;;;8.43;75.89;99401.70;1626133;88;21051;-79
2022/10/22 01:43:18;;;;;;;24.37;11.50;;;;;;;8.43;74.25;99407.33;1634664;87;21074;-79
2022/10/22 01:45:50;;;;;;;24.95;11.68;;;;;;;8.36;75.65;99407.81;1621651;88;21047;-79
2022/10/22 01:48:58;;;;;;;25.82;11.53;;;;;;;8.36;76.07;99404.77;1610661;88;21482;-79
2022/10/22 01:52:01;;;;;;;25.75;10.82;;;;;;;8.39;75.02;99409.05;1621743;88;21071;-80
2022/10/22 01:54:39;;;;;;;25.55;12.03;;;;;;;8.30;75.47;99402.70;1611603;88;21068;-80
2022/10/22 01:57:30;;;;;;;28.45;12.33;;;;;;;8.22;75.29;99395.45;1634283;88;21027;-81
2022/10/22 02:00:13;;;;;;;28.42;11.93;;;;;;;8.16;75.63;99396.37;1629279;87;21587;-81
2022/10/22 02:03:04;;;;;;;27.30;13.08;;;;;;;8.12;75.88;99394.24;1617671;88;20995;-79
2022/10/22 02:05:46;;;;;;;27.02;12.68;;;;;;;8.15;76.15;99390.75;1621493;88;21102;-79
2022/10/22 02:08:24;;;;;;;28.25;12.45;;;;;;;8.22;76.67;99391.56;1622628;88;21003;-79
2022/10/22 02:10:54;;;;;;;30.72;12.47;;;;;;;8.23;75.32;99391.52;1629402;87;21006;-78
2022/10/22 02:13:33;;;;;;;31.35;12.55;;;;;;;8.24;75.29;99397.59;1631810;88;21031;-79
2022/10/22 02:16:04;;;;;;;26.50;11.85;;;;;;;8.21;75.78;99397.60;1633501;87;21071;-79
2022/10/22 02:18:34;;;;;;;27.98;11.70;;;;;;;8.12;75.77;99394.24;1634879;87;21617;-80
2022/10/22 02:21:02;;;;;;;26.23;12.60;;;;;;;8.15;76.43;99386.42;1631033;88;21024;-79
2022/10/22 02:23:30;;;;;;;27.42;12.47;;;;;;;8.19;75.82;99395.47;1625888;87;21492;-78
2022/10/22 02:26:06;;;;;;;32.75;12.68;;;;;;;8.19;75.82;99390.29;1637139;88;21495;-79
2022/10/22 02:28:57;;;;;;;26.40;12.05;;;;;;;8.17;75.81;99389.85;1625065;88;21643;-78
2022/10/22 02:31:31;;;;;;;32.13;14.38;;;;;;;8.19;77.20;99390.29;1616186;88;21683;-78
2022/10/22 02:34:04;;;;;;;28.32;14.45;;;;;;;8.13;77.53;99397.23;1624730;88;21507;-79
2022/10/22 02:36:32;;;;;;;31.73;14.20;;;;;;;8.10;77.00;99406.79;1632703;88;21030;-79
2022/10/22 02:39:00;;;;;;;32.58;12.73;;;;;;;8.06;76.64;99405.11;1618856;88;21016;-79
2022/10/22 02:41:29;;;;;;;31.40;12.95;;;;;;;8.02;76.98;99413.34;1633431;88;21015;-78
2022/10/22 02:43:56;;;;;;;28.75;11.60;;;;;;;8.03;77.01;99416.78;1617674;88;21060;-79
2022/10/22 02:46:25;;;;;;;26.95;12.50;;;;;;;8.03;77.33;99413.74;1619365;88;21170;-79
2022/10/22 02:48:53;;;;;;;32.10;12.07;;;;;;;8.08;77.71;99413.72;1621300;88;21016;-80
2022/10/22 02:51:20;;;;;;;28.80;12.10;;;;;;;8.09;75.98;99429.66;1624479;87;21048;-77
2022/10/22 02:53:48;;;;;;;26.05;13.48;;;;;;;8.06;77.07;99420.20;1620358;87;21032;-78
2022/10/22 02:56:16;;;;;;;38.02;16.12;;;;;;;8.05;77.04;99421.06;1617568;87;21071;-79
2022/10/22 02:58:44;;;;;;;42.10;14.90;;;;;;;8.06;77.20;99429.27;1616616;87;21564;-79
2022/10/22 03:01:12;;;;;;;30.32;13.88;;;;;;;8.05;77.57;99426.23;1631200;87;20996;-78
2022/10/22 03:03:40;;;;;;;32.65;14.10;;;;;;;8.09;77.80;99417.56;1632741;87;21036;-79
2022/10/22 03:06:07;;;;;;;30.23;15.00;;;;;;;8.13;77.37;99428.31;1632881;87;21052;-79
2022/10/22 03:08:35;;;;;;;33.92;14.10;;;;;;;8.16;77.49;99422.27;1622339;87;21048;-79
2022/10/22 03:11:03;;;;;;;37.98;14.78;;;;;;;8.17;76.96;99418.34;1620171;87;21039;-79
2022/10/22 03:13:30;;;;;;;28.95;12.98;;;;;;;8.10;76.79;99416.70;1612040;87;21039;-79
2022/10/22 03:15:58;;;;;;;26.80;12.03;;;;;;;8.04;76.06;99410.70;1629361;87;21576;-79
2022/10/22 03:18:25;;;;;;;30.90;12.18;;;;;;;7.94;76.19;99404.79;1637113;87;21040;-79
2022/10/22 03:21:11;;;;;;;22.07;11.55;;;;;;;7.84;76.60;99397.54;1632845;87;21032;-80
2022/10/22 03:23:41;;;;;;;21.02;10.28;;;;;;;7.82;76.75;99395.81;1619579;87;21050;-79
2022/10/22 03:26:11;;;;;;;27.13;12.03;;;;;;;7.76;76.67;99388.55;1633769;87;21039;-79
2022/10/22 03:28:40;;;;;;;29.32;13.10;;;;;;;7.68;76.92;99394.23;1626547;87;21008;-79
2022/10/22 03:31:07;;;;;;;30.02;14.03;;;;;;;7.65;77.54;99394.69;1636631;87;21023;-79
2022/10/22 03:33:35;;;;;;;25.55;12.68;;;;;;;7.66;77.21;99388.21;1639405;87;21044;-78
2022/10/22 03:36:03;;;;;;;29.98;13.65;;;;;;;7.63;77.60;99385.63;1637435;87;21012;-79
2022/10/22 03:38:31;;;;;;;27.93;14.83;;;;;;;7.60;77.32;99389.56;1639462;87;21611;-79
2022/10/22 03:40:58;;;;;;;32.42;15.40;;;;;;;7.54;77.45;99389.17;1632807;87;21068;-79
2022/10/22 03:43:27;;;;;;;33.50;13.55;;;;;;;7.48;77.68;99387.92;1635450;87;21051;-80
2022/10/22 03:45:54;;;;;;;26.07;12.93;;;;;;;7.42;77.46;99374.16;1632054;87;21047;-80
2022/10/22 03:48:22;;;;;;;26.62;12.75;;;;;;;7.35;78.34;99374.66;1633129;87;21052;-78
2022/10/22 03:50:50;;;;;;;27.82;12.03;;;;;;;7.30;79.75;99377.28;1635154;87;21067;-79
2022/10/22 03:53:18;;;;;;;30.27;12.37;;;;;;;7.29;78.07;99376.84;1633652;88;21019;-79
2022/10/22 03:55:46;;;;;;;27.35;12.50;;;;;;;7.27;77.93;99381.17;1618600;87;21035;-78
2022/10/22 03:58:14;;;;;;;23.27;11.48;;;;;;;7.24;77.52;99374.75;1631896;88;21504;-78
2022/10/22 04:00:41;;;;;;;31.95;11.88;;;;;;;7.22;77.23;99369.14;1637490;88;21030;-79
2022/10/22 04:03:09;;;;;;;32.45;12.05;;;;;;;7.17;77.70;99372.62;1631828;88;21050;-79
2022/10/22 04:05:37;;;;;;;29.55;13.10;;;;;;;7.15;77.99;99356.70;1636048;88;21050;-80
2022/10/22 04:08:05;;;;;;;28.80;11.65;;;;;;;7.17;78.31;99358.84;1625556;88;21063;-79
2022/10/22 04:10:32;;;;;;;30.55;11.68;;;;;;;7.19;79.64;99356.25;1637828;88;21004;-79
2022/10/22 04:13:00;;;;;;;30.37;11.20;;;;;;;7.20;80.64;99361.38;1628948;88;21584;-79
2022/10/22 04:15:28;;;;;;;26.82;10.78;;;;;;;7.20;79.13;99363.13;1636858;88;21072;-79
2022/10/22 04:17:55;;;;;;;27.00;10.55;;;;;;;7.18;78.44;99357.95;1634301;87;21047;-79
2022/10/22 04:20:23;;;;;;;26.85;11.55;;;;;;;7.17;78.35;99357.55;1625505;87;21023;-79
2022/10/22 04:22:50;;;;;;;28.80;9.95;;;;;;;7.16;80.05;99357.11;1627587;88;22133;-79
2022/10/22 04:25:18;;;;;;;20.97;9.90;;;;;;;7.18;80.29;99365.71;1637678;88;21063;-78
2022/10/22 04:27:45;;;;;;;24.90;11.45;;;;;;;7.22;79.77;99364.84;1631507;87;21039;-79
2022/10/22 04:30:13;;;;;;;25.15;10.38;;;;;;;7.27;79.92;99365.66;1629055;88;21022;-79
2022/10/22 04:32:41;;;;;;;23.55;11.33;;;;;;;7.34;80.12;99371.62;1621493;88;21103;-78
2022/10/22 04:35:08;;;;;;;24.15;11.20;;;;;;;7.39;79.77;99366.44;1629093;88;20992;-80
2022/10/22 04:37:36;;;;;;;22.95;9.88;;;;;;;7.40;79.74;99362.97;1624589;88;21055;-79
2022/10/22 04:40:05;;;;;;;20.45;10.60;;;;;;;7.45;80.50;99367.69;1623377;88;21672;-79
2022/10/22 04:42:32;;;;;;;26.60;11.38;;;;;;;7.47;80.66;99365.94;1625039;87;21092;-80
2022/10/22 04:45:00;;;;;;;22.07;10.43;;;;;;;7.47;80.10;99359.47;1632341;88;21063;-79
2022/10/22 04:47:27;;;;;;;21.23;10.13;;;;;;;7.47;80.66;99356.89;1637461;88;21094;-78
2022/10/22 04:49:55;;;;;;;23.83;10.43;;;;;;;7.45;80.47;99345.25;1626137;88;21059;-80
2022/10/22 04:52:23;;;;;;;22.70;8.98;;;;;;;7.41;80.05;99342.72;1614828;87;21524;-80
2022/10/22 04:54:50;;;;;;;23.55;10.30;;;;;;;7.37;80.71;99345.31;1632550;87;21077;-79
2022/10/22 04:57:18;;;;;;;20.32;9.78;;;;;;;7.35;80.17;99340.59;1627939;87;21592;-79
2022/10/22 04:59:46;;;;;;;21.27;9.18;;;;;;;7.35;80.39;99340.59;1618043;87;21088;-78
2022/10/22 05:02:13;;;;;;;23.98;9.70;;;;;;;7.37;80.27;99332.38;1637518;87;21020;-79
2022/10/22 05:04:43;;;;;;;23.77;10.78;;;;;;;7.41;79.84;99343.56;1635033;87;21027;-79
2022/10/22 05:07:11;;;;;;;17.82;8.90;;;;;;;7.45;79.29;99342.66;1637304;87;21076;-79
2022/10/22 05:09:38;;;;;;;22.35;9.75;;;;;;;7.47;79.85;99342.66;1633302;87;21016;-79
2022/10/22 05:12:06;;;;;;;26.12;10.25;;;;;;;7.50;79.69;99347.79;1628795;87;21084;-79
2022/10/22 05:14:34;;;;;;;33.35;10.43;;;;;;;7.55;79.46;99345.59;1640375;87;21544;-79
2022/10/22 05:17:02;;;;;;;28.30;10.43;;;;;;;7.62;79.51;99344.23;1631075;87;21064;-79
2022/10/22 05:19:31;;;;;;;21.33;9.38;;;;;;;7.71;79.54;99339.84;1637635;87;21051;-79
2022/10/22 05:22:01;;;;;;;27.67;11.63;;;;;;;7.81;79.02;99338.47;1629776;87;21487;-79
2022/10/22 05:24:32;;;;;;;25.60;11.18;;;;;;;7.90;79.05;99350.03;1619366;87;21055;-78
2022/10/22 05:27:00;;;;;;;19.75;10.40;;;;;;;7.95;78.81;99351.67;1617213;87;21516;-79
2022/10/22 05:29:28;;;;;;;29.60;12.15;;;;;;;8.04;78.77;99352.03;1638661;87;21072;-80
2022/10/22 05:31:55;;;;;;;37.17;12.50;;;;;;;8.12;78.52;99356.69;1635951;87;21082;-80
2022/10/22 05:34:23;;;;;;;28.95;11.05;;;;;;;8.16;78.50;99357.08;1622654;87;21072;-80
2022/10/22 05:36:51;;;;;;;26.00;10.70;;;;;;;8.20;78.53;99359.61;1629208;87;21028;-80
2022/10/22 05:39:18;;;;;;;26.93;11.68;;;;;;;8.27;78.05;99365.16;1620587;87;21540;-79
2022/10/22 05:41:46;;;;;;;26.27;10.05;;;;;;;8.30;78.48;99374.20;1615877;87;21060;-79
2022/10/22 05:44:14;;;;;;;22.48;10.13;;;;;;;8.35;78.21;99367.22;1636593;87;21050;-80
2022/10/22 05:46:42;;;;;;;22.60;9.98;;;;;;;8.43;78.16;99369.75;1621638;87;21171;-80
2022/10/22 05:49:14;;;;;;;34.13;11.20;;;;;;;8.50;78.24;99366.23;1616755;87;21517;-79
2022/10/22 05:51:42;;;;;;;22.63;9.80;;;;;;;8.61;78.16;99357.86;1623338;86;21373;-80
2022/10/22 05:54:18;;;;;;;20.45;9.88;;;;;;;8.74;78.05;99355.53;1618560;87;20973;-79
2022/10/22 05:56:45;;;;;;;27.45;8.95;;;;;;;8.88;77.89;99356.64;1666438;85;21112;-80
2022/10/22 05:59:13;;;;;;;21.52;10.40;;;;;;;9.02;77.48;99354.30;1609352;89;21062;-79
2022/10/22 06:01:41;;;;;;;20.08;9.00;;;;;;;9.11;77.30;99354.14;1640354;87;21079;-79
2022/10/22 06:04:11;;;;;;;19.52;7.75;;;;;;;9.20;76.91;99353.16;1624934;87;21039;-80
2022/10/22 06:06:46;;;;;;;19.77;8.60;;;;;;;9.24;76.67;99359.56;1622163;87;21001;-79
2022/10/22 06:09:29;;;;;;;19.67;7.03;;;;;;;9.33;76.39;99348.17;1627096;87;21507;-82
2022/10/22 06:11:58;;;;;;;17.42;7.53;;;;;;;9.43;75.60;99356.67;1638890;87;21045;-79
2022/10/22 06:14:26;;;;;;;11.63;5.80;;;;;;;9.54;75.86;99364.70;1639264;87;22271;-79
2022/10/22 06:16:55;;;;;;;17.15;6.03;;;;;;;9.62;75.62;99361.98;1666632;85;21046;-80
2022/10/22 06:19:25;;;;;;;11.55;5.15;;;;;;;9.71;75.49;99360.53;1656879;85;21608;-79
2022/10/22 06:21:53;;;;;;;14.10;6.65;;;;;;;9.81;75.21;99354.74;1613059;87;21501;-78
2022/10/22 06:24:20;;;;;;;12.88;6.05;;;;;;;9.92;74.34;99355.84;1605420;87;21015;-79
2022/10/22 06:26:52;;;;;;;11.38;5.45;;;;;;;10.05;74.48;99359.93;1612944;89;21543;-80
2022/10/22 06:29:20;;;;;;;11.55;5.70;;;;;;;10.14;73.72;99366.23;1605586;87;21047;-79
2022/10/22 06:31:48;;;;;;;13.60;5.55;;;;;;;10.24;72.82;99367.36;1612791;88;21049;-79
2022/10/22 06:34:20;;;;;;;12.63;5.87;;;;;;;10.37;73.50;99374.08;1607512;87;21064;-80
2022/10/22 06:36:46;;;;;;;19.25;5.65;;;;;;;10.46;72.80;99364.77;1611181;89;21611;-80
2022/10/22 06:39:16;;;;;;;12.65;5.58;;;;;;;10.52;71.97;99365.98;1611202;87;21544;-79
2022/10/22 06:41:44;;;;;;;13.25;6.00;;;;;;;10.65;73.03;99365.72;1608353;88;21000;-79
2022/10/22 06:44:15;;;;;;;12.88;5.72;;;;;;;10.75;72.50;99366.78;1611770;87;21000;-78
2022/10/22 06:46:43;;;;;;;13.60;6.33;;;;;;;10.88;71.20;99375.61;1606192;89;21118;-78
2022/10/22 06:49:15;;;;;;;14.25;6.15;;;;;;;11.01;70.25;99376.21;1612712;89;21064;-80
2022/10/22 06:51:43;;;;;;;17.03;5.80;;;;;;;11.09;69.37;99371.23;1608567;88;21063;-79
2022/10/22 06:54:11;;;;;;;12.88;5.95;;;;;;;11.13;69.39;99369.42;1611734;89;21232;-80
2022/10/22 06:56:39;;;;;;;17.73;6.67;;;;;;;11.11;68.22;99376.41;1609537;87;20984;-80
2022/10/22 06:59:06;;;;;;;14.53;6.00;;;;;;;11.15;68.16;99378.05;1607423;89;21519;-79
2022/10/22 07:01:36;;;;;;;14.35;6.22;;;;;;;11.24;69.20;99375.67;1635007;87;21086;-79
2022/10/22 07:04:04;;;;;;;19.12;6.40;;;;;;;11.29;69.29;99378.58;1620579;87;21054;-79
2022/10/22 07:06:32;;;;;;;11.73;6.00;;;;;;;11.34;69.92;99370.23;1651399;87;21041;-82
2022/10/22 07:09:00;;;;;;;12.10;6.08;;;;;;;11.38;69.99;99368.83;1612856;89;21035;-81
2022/10/22 07:11:45;;;;;;;13.05;6.25;;;;;;;11.45;69.44;99375.62;1611517;87;21063;-80
2022/10/22 07:14:13;;;;;;;12.53;6.60;;;;;;;11.48;69.80;99371.20;1606160;89;21022;-79
2022/10/22 07:16:42;;;;;;;11.73;5.78;;;;;;;11.44;68.76;99369.56;1605095;87;21540;-79
2022/10/22 07:19:09;;;;;;;12.40;6.62;;;;;;;11.48;69.08;99367.30;1603611;89;22215;-80
2022/10/22 07:21:37;;;;;;;13.55;6.75;;;;;;;11.52;69.18;99366.78;1596663;88;21531;-79
2022/10/22 07:24:05;;;;;;;13.83;6.60;;;;;;;11.55;69.08;99371.44;1610256;89;21024;-78
2022/10/22 07:26:32;;;;;;;16.90;6.60;;;;;;;11.54;68.93;99380.16;1610576;87;21051;-79
2022/10/22 07:29:00;;;;;;;13.18;6.20;;;;;;;11.56;69.13;99377.53;1606584;88;21030;-80
2022/10/22 07:31:29;;;;;;;12.13;5.85;;;;;;;11.57;68.46;99379.67;1638730;87;21057;-79
2022/10/22 07:33:57;;;;;;;10.08;5.97;;;;;;;11.62;69.00;99379.97;1635350;87;21051;-80
2022/10/22 07:36:25;;;;;;;21.23;9.90;;;;;;;11.60;68.09;99383.06;1621203;87;21659;-80
2022/10/22 07:38:56;;;;;;;21.25;8.63;;;;;;;11.62;68.55;99382.58;1636062;86;21538;-79
2022/10/22 07:41:24;;;;;;;23.90;8.40;;;;;;;11.68;68.47;99373.77;1612755;89;21070;-79
2022/10/22 07:43:52;;;;;;;17.95;6.83;;;;;;;11.75;68.94;99371.39;1607679;87;21008;-79
2022/10/22 07:46:20;;;;;;;17.73;6.17;;;;;;;11.84;68.40;99366.41;1604835;88;21067;-79
2022/10/22 07:48:48;;;;;;;15.35;6.10;;;;;;;11.99;68.29;99372.99;1603760;88;21051;-78
2022/10/22 07:51:16;;;;;;;16.27;6.17;;;;;;;12.08;68.21;99365.78;1612950;89;21060;-78
2022/10/22 07:53:44;;;;;;;13.70;6.25;;;;;;;12.21;66.93;99374.57;1605553;87;21103;-78
2022/10/22 07:56:12;;;;;;;13.13;6.17;;;;;;;12.36;66.77;99363.73;1612820;89;21126;-79
2022/10/22 07:58:40;;;;;;;16.00;6.15;;;;;;;12.52;66.63;99374.13;1608264;87;21516;-78
2022/10/22 08:01:08;;;;;;;13.62;6.08;;;;;;;12.72;66.94;99363.56;1603259;89;21036;-79
2022/10/22 08:03:35;;;;;;;11.40;5.47;;;;;;;12.91;65.03;99360.81;1609919;87;21067;-78
2022/10/22 08:06:04;;;;;;;13.10;5.80;;;;;;;13.06;65.85;99360.78;1595155;89;21093;-78
2022/10/22 08:08:32;;;;;;;12.00;5.15;;;;;;;13.19;65.21;99360.39;1625227;87;21075;-78
2022/10/22 08:11:00;;;;;;;14.13;6.00;;;;;;;13.33;66.11;99360.41;1629118;87;21051;-79
2022/10/22 08:13:31;;;;;;;15.45;6.37;;;;;;;13.46;66.11;99359.54;1637124;87;21070;-79
2022/10/22 08:16:00;;;;;;;11.05;5.90;;;;;;;13.61;65.59;99359.50;1649522;85;21612;-81
2022/10/22 08:18:28;;;;;;;12.23;6.22;;;;;;;13.78;65.33;99360.23;1682834;85;21072;-79
2022/10/22 08:20:56;;;;;;;16.32;4.95;;;;;;;13.91;65.36;99361.53;1655879;85;21553;-79
2022/10/22 08:23:24;;;;;;;13.00;5.20;;;;;;;14.08;63.96;99358.31;1612304;88;21048;-79
2022/10/22 08:25:52;;;;;;;13.83;6.95;;;;;;;14.21;63.04;99357.44;1597476;87;21032;-79
2022/10/22 08:28:20;;;;;;;15.88;6.30;;;;;;;14.36;63.77;99354.70;1610548;89;21008;-79
2022/10/22 08:30:47;;;;;;;11.57;5.03;;;;;;;14.48;63.18;99343.82;1605913;87;21035;-79
2022/10/22 08:33:15;;;;;;;10.35;5.20;;;;;;;14.60;61.75;99343.82;1612656;89;21023;-79
2022/10/22 08:35:49;;;;;;;13.50;4.72;;;;;;;14.73;62.24;99332.45;1604793;87;21023;-79
2022/10/22 08:38:18;;;;;;;13.00;4.78;;;;;;;14.87;61.93;99336.69;1598911;88;21075;-80
2022/10/22 08:40:53;;;;;;;15.03;5.87;;;;;;;15.06;61.30;99338.58;1606872;87;21047;-80
2022/10/22 08:43:35;;;;;;;13.98;5.25;;;;;;;15.12;58.67;99335.75;1595351;89;21036;-80
2022/10/22 08:46:39;;;;;;;9.65;5.50;;;;;;;15.18;58.34;99328.95;1606064;87;21100;-79
2022/10/22 08:49:17;;;;;;;12.17;5.73;;;;;;;15.35;59.06;99338.73;1596484;88;21047;-79
2022/10/22 08:51:45;;;;;;;8.50;4.55;;;;;;;15.39;58.87;99343.39;1605849;87;21753;-81
2022/10/22 08:54:48;;;;;;;15.20;5.67;;;;;;;15.49;57.72;99340.78;1597561;88;21547;-81
2022/10/22 08:57:39;;;;;;;16.15;6.20;;;;;;;15.68;58.11;99338.27;1603826;88;21032;-79
2022/10/22 09:00:41;;;;;;;21.65;5.78;;;;;;;15.76;58.69;99339.28;1599435;88;21118;-79
2022/10/22 09:03:26;;;;;;;17.00;5.25;;;;;;;15.91;58.42;99350.41;1607336;88;21064;-79
2022/10/22 09:06:17;;;;;;;13.15;5.72;;;;;;;16.09;58.78;99347.45;1611085;88;21051;-79
2022/10/22 09:08:46;;;;;;;11.20;5.12;;;;;;;16.19;58.00;99334.31;1597572;89;21032;-81
2022/10/22 09:11:37;;;;;;;12.05;5.37;;;;;;;16.28;55.98;99333.08;1611091;89;21024;-79
2022/10/22 09:14:08;;;;;;;13.60;5.05;;;;;;;16.42;56.30;99337.70;1610827;89;21076;-79
2022/10/22 09:17:16;;;;;;;11.18;4.50;;;;;;;16.56;54.66;99326.58;1608629;88;21118;-81
2022/10/22 09:19:58;;;;;;;10.78;5.30;;;;;;;16.63;55.52;99333.23;1608187;89;21056;-80
2022/10/22 09:22:43;;;;;;;11.80;4.45;;;;;;;16.78;55.00;99336.94;1609332;88;21560;-80
2022/10/22 09:25:27;;;;;;;15.60;4.58;;;;;;;16.95;55.21;99332.22;1607176;88;21040;-82
2022/10/22 09:27:57;;;;;;;10.68;6.58;;;;;;;17.13;53.50;99329.17;1608980;88;21092;-79
2022/10/22 09:30:29;;;;;;;13.50;6.10;;;;;;;17.35;52.41;99328.53;1598549;89;21458;-80
2022/10/22 09:33:08;;;;;;;11.38;3.60;;;;;;;17.58;52.75;99324.74;1651478;86;21049;-80
2022/10/22 09:35:56;;;;;;;6.92;3.55;;;;;;;17.77;48.39;99323.36;1640404;87;21103;-79
2022/10/22 09:38:29;;;;;;;5.95;2.90;;;;;;;17.95;48.78;99317.66;1621464;87;21973;-79
2022/10/22 09:40:59;;;;;;;12.28;3.52;;;;;;;18.17;50.02;99316.53;1637485;87;21036;-79
2022/10/22 09:43:26;;;;;;;9.80;3.35;;;;;;;18.29;49.73;99319.83;1670053;85;21061;-79
2022/10/22 09:45:58;;;;;;;10.32;3.22;;;;;;;18.39;49.32;99304.39;1618362;87;21015;-78
2022/10/22 09:48:41;;;;;;;10.38;2.80;;;;;;;18.56;48.68;99310.05;1631941;87;21076;-79
2022/10/22 09:51:21;;;;;;;6.55;2.70;;;;;;;18.73;48.51;99313.92;1640264;87;21040;-79
2022/10/22 09:53:59;;;;;;;7.47;3.10;;;;;;;19.00;47.59;99308.08;1645397;87;21630;-80
2022/10/22 09:56:40;;;;;;;8.65;2.60;;;;;;;19.23;46.10;99310.73;1655598;87;21108;-80
2022/10/22 09:59:18;;;;;;;10.18;2.92;;;;;;;19.51;46.71;99307.34;1619201;87;21012;-80
2022/10/22 10:01:45;;;;;;;7.87;2.87;;;;;;;19.79;44.73;99310.55;1627143;87;21055;-80
2022/10/22 10:04:15;;;;;;;8.58;2.90;;;;;;;20.05;43.73;99315.59;1618965;87;21413;-79
2022/10/22 10:06:44;;;;;;;7.33;2.67;;;;;;;20.24;45.26;99301.27;1630132;87;21012;-78
2022/10/22 10:09:22;;;;;;;6.33;3.05;;;;;;;20.42;45.32;99301.44;1638931;87;21131;-79
2022/10/22 10:12:19;;;;;;;8.95;3.67;;;;;;;20.61;44.81;99305.58;1625007;87;21667;-79
2022/10/22 10:15:16;;;;;;;11.88;3.00;;;;;;;20.71;42.52;99297.48;1634836;87;21034;-78
2022/10/22 10:18:06;;;;;;;9.05;3.10;;;;;;;20.83;43.48;99305.06;1633206;87;21071;-80
2022/10/22 10:20:42;;;;;;;9.45;3.10;;;;;;;20.93;42.68;99301.36;1622490;87;21480;-80
2022/10/22 10:23:57;;;;;;;7.33;3.30;;;;;;;21.04;42.80;99295.75;1628769;87;21000;-80
2022/10/22 10:26:51;;;;;;;9.50;3.30;;;;;;;21.18;40.84;99301.45;1622679;87;21028;-80
2022/10/22 10:30:02;;;;;;;8.33;2.80;;;;;;;21.31;40.94;99304.61;1633350;87;21024;-80
2022/10/22 10:32:53;;;;;;;8.98;2.90;;;;;;;21.44;41.00;99285.22;1607429;88;21068;-80
2022/10/22 10:35:57;;;;;;;8.58;3.08;;;;;;;21.52;40.17;99294.44;1614450;87;21042;-79
2022/10/22 10:38:48;;;;;;;8.13;2.85;;;;;;;21.61;40.11;99290.70;1640607;87;21104;-79
2022/10/22 10:41:58;;;;;;;7.97;2.50;;;;;;;21.75;39.60;99291.58;1623472;86;21419;-80
2022/10/22 10:45:20;;;;;;;8.70;3.20;;;;;;;21.87;39.61;99288.57;1623685;87;21032;-80
2022/10/22 10:48:21;;;;;;;4.47;2.77;;;;;;;21.92;40.09;99283.30;1623347;87;21103;-80
2022/10/22 10:51:09;;;;;;;8.50;2.55;;;;;;;22.02;39.40;99273.80;1638226;87;21065;-79
2022/10/22 10:54:14;;;;;;;11.43;2.62;;;;;;;22.09;39.23;99272.05;1633946;87;21107;-79
2022/10/22 10:57:25;;;;;;;6.10;2.35;;;;;;;22.07;38.66;99266.02;1624297;88;21552;-79
2022/10/22 11:00:10;;;;;;;12.65;2.80;;;;;;;22.07;39.24;99257.58;1622258;88;21631;-80
2022/10/22 11:03:34;;;;;;;8.95;2.37;;;;;;;21.99;37.77;99265.22;1630949;88;21123;-79
2022/10/22 11:06:15;;;;;;;7.07;2.60;;;;;;;21.90;37.37;99265.84;1631777;88;21044;-80
2022/10/22 11:08:53;;;;;;;7.62;2.70;;;;;;;21.90;39.60;99253.94;1646232;85;21089;-79
2022/10/22 11:11:47;;;;;;;5.45;2.75;;;;;;;21.72;39.42;99257.38;1633540;87;21560;-80
2022/10/22 11:14:27;;;;;;;;;;;;;;;21.64;38.70;99252.60;1627835;87;21043;-79
2022/10/22 11:17:12;;;;;;;10.30;3.00;;;;;;;21.39;38.95;99251.61;1639371;87;20173;-80
2022/10/22 11:19:47;;;;;;;5.85;2.83;;;;;;;21.45;39.55;99240.64;1627621;87;21603;-80
2022/10/22 11:22:37;;;;;;;11.10;3.27;;;;;;;21.53;39.89;99244.58;1639359;87;21087;-80
2022/10/22 11:25:24;;;;;;;7.72;2.67;;;;;;;21.65;39.73;99239.77;1625602;87;21080;-80
2022/10/22 11:27:57;;;;;;;7.78;2.95;;;;;;;21.83;39.95;99233.67;1639027;87;20992;-79
2022/10/22 11:30:28;;;;;;;12.05;3.42;;;;;;;22.09;39.45;99229.69;1638395;87;21067;-80
2022/10/22 11:33:01;;;;;;;11.75;4.17;;;;;;;22.40;37.94;99242.47;1646327;87;21069;-79
2022/10/22 11:35:44;;;;;;;10.78;3.40;;;;;;;22.59;39.44;99233.19;1635597;87;21020;-79
2022/10/22 11:38:16;;;;;;;7.60;3.10;;;;;;;23.07;37.49;99229.72;1614435;87;21083;-80
2022/10/22 11:41:01;;;;;;;7.83;2.92;;;;;;;23.07;37.49;99229.72;1626991;87;21081;-80
2022/10/22 11:43:34;;;;;;;9.85;3.30;;;;;;;23.16;36.39;99222.41;1617610;87;21095;-80
2022/10/22 11:46:19;;;;;;;7.22;3.05;;;;;;;23.24;36.00;99217.37;1646584;85;21089;-80
2022/10/22 11:49:15;;;;;;;8.03;3.15;;;;;;;23.30;37.55;99215.58;1627387;86;21040;-79
2022/10/22 11:51:45;;;;;;;9.73;3.42;;;;;;;23.39;37.40;99224.14;1624237;87;21580;-80
2022/10/22 11:54:41;;;;;;;8.73;3.05;;;;;;;23.57;37.26;99221.88;1613515;87;21107;-80
2022/10/22 11:57:17;;;;;;;6.25;2.65;;;;;;;23.76;35.27;99219.16;1629924;87;21111;-79
2022/10/22 11:59:56;;;;;;;11.85;2.90;;;;;;;23.92;35.62;99218.84;1623781;87;21076;-79